Time;durP1;ratioP1;P1;durP2;ratioP2;P2;SDS_P1;SDS_P2;PMS_P1;PMS_P2;Temp;Humidity;BMP_temperature;BMP_pressure;BME280_temperature;BME280_humidity;BME280_pressure;Samples;Min_cycle;Max_cycle;Signal;HPM_P1;HPM_P2
2023/08/31 00:01:49;;;;;;;7.13;3.20;;;11.80;99.90;;;;;;6158014;23;20370;-84
2023/08/31 00:04:15;;;;;;;4.35;1.50;;;11.70;99.90;;;;;;6184645;23;20036;-85
2023/08/31 00:06:41;;;;;;;2.72;1.10;;;11.70;99.90;;;;;;6158182;23;20009;-85
2023/08/31 00:09:09;;;;;;;6.90;1.40;;;11.70;99.90;;;;;;6157557;23;20040;-85
2023/08/31 00:11:38;;;;;;;7.07;1.55;;;11.60;99.90;;;;;;6133602;23;20080;-86
2023/08/31 00:14:04;;;;;;;7.75;1.50;;;11.60;99.90;;;;;;6184684;23;20459;-85
2023/08/31 00:16:30;;;;;;;5.82;1.65;;;11.60;99.90;;;;;;6158513;23;20031;-83
2023/08/31 00:18:59;;;;;;;8.63;2.85;;;11.60;99.90;;;;;;6157690;23;20455;-83
2023/08/31 00:21:25;;;;;;;4.40;1.73;;;11.60;99.90;;;;;;6185079;23;20406;-83
2023/08/31 00:23:50;;;;;;;5.18;1.40;;;11.60;99.90;;;;;;6133113;23;20450;-83
2023/08/31 00:26:16;;;;;;;6.35;1.98;;;11.60;99.90;;;;;;6184946;23;20021;-83
2023/08/31 00:28:42;;;;;;;10.02;1.55;;;11.60;99.90;;;;;;6184044;23;20016;-83
2023/08/31 00:31:08;;;;;;;5.53;1.80;;;11.60;99.90;;;;;;6133297;23;20013;-83
2023/08/31 00:33:34;;;;;;;3.55;1.40;;;11.50;99.90;;;;;;6157579;23;20099;-83
2023/08/31 00:36:03;;;;;;;6.72;1.70;;;11.50;99.90;;;;;;6158070;23;20012;-83
2023/08/31 00:38:30;;;;;;;3.92;1.30;;;11.50;99.90;;;;;;6184576;23;20342;-83
2023/08/31 00:40:56;;;;;;;5.95;1.73;;;11.60;99.90;;;;;;6157656;23;20012;-84
2023/08/31 00:43:22;;;;;;;8.23;1.85;;;11.50;99.90;;;;;;6133059;23;20398;-83
2023/08/31 00:45:56;;;;;;;12.52;4.03;;;11.50;99.90;;;;;;6133186;23;20020;-83
2023/08/31 00:48:22;;;;;;;7.78;2.03;;;11.60;99.90;;;;;;6183991;23;20624;-83
2023/08/31 00:50:48;;;;;;;4.28;1.60;;;11.60;99.90;;;;;;6185146;23;20013;-83
2023/08/31 00:53:15;;;;;;;11.02;3.65;;;11.60;99.90;;;;;;6132421;23;20016;-83
2023/08/31 00:55:41;;;;;;;4.43;1.80;;;11.60;99.90;;;;;;6157340;23;20016;-83
2023/08/31 00:58:07;;;;;;;6.25;1.80;;;11.60;99.90;;;;;;6157720;23;20036;-83
2023/08/31 01:00:53;;;;;;;3.80;1.17;;;11.60;99.90;;;;;;6157600;23;20072;-83
2023/08/31 01:03:34;;;;;;;4.93;1.88;;;11.50;99.90;;;;;;6132657;23;20009;-83
2023/08/31 01:06:18;;;;;;;6.30;2.20;;;11.60;99.90;;;;;;6157700;23;20009;-83
2023/08/31 01:09:10;;;;;;;11.05;2.40;;;11.60;99.90;;;;;;6133159;23;20083;-83
2023/08/31 01:12:09;;;;;;;7.55;2.22;;;11.60;99.90;;;;;;6132502;23;20013;-83
2023/08/31 01:15:11;;;;;;;3.35;1.30;;;11.60;99.90;;;;;;6157883;23;20013;-83
2023/08/31 01:17:44;;;;;;;4.38;1.70;;;11.70;99.90;;;;;;6157902;23;20422;-83
2023/08/31 01:20:13;;;;;;;6.82;1.95;;;11.70;99.90;;;;;;6157906;23;20060;-83
2023/08/31 01:22:47;;;;;;;8.73;2.13;;;11.70;99.90;;;;;;6158262;23;20375;-83
2023/08/31 01:25:14;;;;;;;4.55;1.80;;;11.70;99.90;;;;;;6134056;23;20051;-83
2023/08/31 01:27:41;;;;;;;5.90;1.85;;;11.70;99.90;;;;;;6132548;23;20016;-83
2023/08/31 01:30:08;;;;;;;7.32;1.92;;;11.70;99.90;;;;;;6132800;23;20028;-83
2023/08/31 01:32:34;;;;;;;6.72;2.20;;;11.70;99.90;;;;;;6157767;23;20013;-83
2023/08/31 01:35:03;;;;;;;6.78;2.08;;;11.70;99.90;;;;;;6157805;23;20144;-83
2023/08/31 01:37:48;;;;;;;4.25;1.42;;;11.70;99.90;;;;;;6157510;23;20481;-83
2023/08/31 01:40:38;;;;;;;9.50;2.65;;;11.70;99.90;;;;;;6132829;23;20013;-83
2023/08/31 01:43:06;;;;;;;4.82;1.90;;;11.70;99.90;;;;;;6157451;23;20459;-83
2023/08/31 01:45:33;;;;;;;7.43;2.22;;;11.70;99.90;;;;;;6157230;23;20017;-83
2023/08/31 01:47:59;;;;;;;8.88;2.20;;;11.70;99.90;;;;;;6157378;23;20016;-83
2023/08/31 01:50:25;;;;;;;6.28;2.83;;;11.80;99.90;;;;;;6157551;23;20013;-83
2023/08/31 01:52:53;;;;;;;6.78;2.25;;;11.80;99.90;;;;;;6133148;23;20538;-83
2023/08/31 01:55:18;;;;;;;11.07;4.53;;;11.80;99.90;;;;;;6133229;23;20021;-83
2023/08/31 01:57:44;;;;;;;12.30;5.20;;;11.90;99.90;;;;;;6158037;23;20009;-83
2023/08/31 02:00:11;;;;;;;7.35;2.22;;;11.90;99.90;;;;;;6132841;23;20113;-83
2023/08/31 02:02:37;;;;;;;12.38;2.50;;;11.90;99.90;;;;;;6157749;23;20020;-83
2023/08/31 02:05:04;;;;;;;8.90;3.05;;;11.90;99.90;;;;;;6132645;23;20017;-83
2023/08/31 02:07:30;;;;;;;8.32;2.20;;;11.80;99.90;;;;;;6132626;23;20051;-83
2023/08/31 02:09:55;;;;;;;9.15;2.53;;;11.80;99.90;;;;;;6157131;23;20041;-83
2023/08/31 02:12:21;;;;;;;9.95;2.70;;;11.80;99.90;;;;;;6133096;23;20013;-83
2023/08/31 02:14:47;;;;;;;8.23;2.83;;;11.80;99.90;;;;;;6157225;23;20017;-83
2023/08/31 02:17:12;;;;;;;10.10;2.50;;;11.70;99.90;;;;;;6134071;23;20013;-83
2023/08/31 02:19:38;;;;;;;9.57;2.45;;;11.80;99.90;;;;;;6158224;23;20009;-83
2023/08/31 02:22:04;;;;;;;11.00;6.20;;;11.70;99.90;;;;;;6134176;23;20394;-83
2023/08/31 02:24:30;;;;;;;8.27;2.20;;;11.80;99.90;;;;;;6158906;23;20096;-83
2023/08/31 02:26:56;;;;;;;6.95;2.28;;;11.80;99.90;;;;;;6158494;23;20024;-83
2023/08/31 02:29:22;;;;;;;9.65;2.95;;;11.80;99.90;;;;;;6158274;23;20013;-83
2023/08/31 02:31:48;;;;;;;5.90;2.85;;;11.70;99.90;;;;;;6134647;23;20092;-83
2023/08/31 02:34:14;;;;;;;7.38;3.05;;;11.70;99.90;;;;;;6159133;23;20024;-83
2023/08/31 02:36:39;;;;;;;10.88;6.75;;;11.70;99.90;;;;;;6185193;23;20394;-83
2023/08/31 02:39:05;;;;;;;7.43;2.67;;;11.80;99.90;;;;;;6158682;23;20013;-83
2023/08/31 02:41:31;;;;;;;8.23;3.80;;;11.70;99.90;;;;;;6159244;23;20013;-83
2023/08/31 02:43:57;;;;;;;8.32;3.80;;;11.70;99.90;;;;;;6159202;23;20098;-83
2023/08/31 02:46:23;;;;;;;7.45;3.20;;;11.70;99.90;;;;;;6134248;23;20347;-83
2023/08/31 02:48:49;;;;;;;9.48;3.95;;;11.70;99.90;;;;;;6158695;23;20087;-83
2023/08/31 02:51:15;;;;;;;11.93;8.23;;;11.60;99.90;;;;;;6159177;23;20020;-83
2023/08/31 02:53:40;;;;;;;10.10;3.70;;;11.60;99.90;;;;;;6158713;23;20013;-83
2023/08/31 02:56:06;;;;;;;8.07;3.40;;;11.60;99.90;;;;;;6159014;23;20009;-83
2023/08/31 02:58:32;;;;;;;8.90;3.10;;;11.60;99.90;;;;;;6158402;23;20013;-83
2023/08/31 03:01:11;;;;;;;10.85;3.55;;;11.50;99.90;;;;;;6159012;23;20450;-83
2023/08/31 03:03:38;;;;;;;7.78;3.38;;;11.50;99.90;;;;;;6158853;23;20105;-83
2023/08/31 03:06:04;;;;;;;7.78;3.25;;;11.50;99.90;;;;;;6134371;23;20020;-83
2023/08/31 03:08:30;;;;;;;7.18;2.50;;;11.50;99.90;;;;;;6158464;23;20012;-83
2023/08/31 03:10:57;;;;;;;8.57;3.08;;;11.50;99.90;;;;;;6158230;23;20333;-83
2023/08/31 03:13:22;;;;;;;10.05;3.10;;;11.50;99.90;;;;;;6158458;23;20016;-83
2023/08/31 03:15:48;;;;;;;5.25;2.17;;;11.50;99.90;;;;;;6134334;23;20359;-83
2023/08/31 03:18:13;;;;;;;10.00;6.95;;;11.50;99.90;;;;;;6158610;23;20013;-83
2023/08/31 03:20:39;;;;;;;10.02;6.88;;;11.50;99.90;;;;;;6158593;23;20506;-83
2023/08/31 03:23:05;;;;;;;7.28;3.10;;;11.60;99.90;;;;;;6158860;23;20009;-83
2023/08/31 03:25:30;;;;;;;8.23;3.30;;;11.60;99.90;;;;;;6133806;23;20502;-83
2023/08/31 03:27:56;;;;;;;6.20;2.17;;;11.60;99.90;;;;;;6132877;23;20013;-83
2023/08/31 03:30:21;;;;;;;8.60;3.03;;;11.50;99.90;;;;;;6158330;23;20043;-83
2023/08/31 03:32:47;;;;;;;5.80;2.15;;;11.50;99.90;;;;;;6158248;23;20017;-83
2023/08/31 03:35:13;;;;;;;7.68;3.00;;;11.50;99.90;;;;;;6158728;23;20097;-83
2023/08/31 03:37:39;;;;;;;6.88;2.90;;;11.60;99.90;;;;;;6158575;23;20008;-83
2023/08/31 03:40:06;;;;;;;7.25;2.78;;;11.50;99.90;;;;;;6158346;23;20005;-83
2023/08/31 03:42:33;;;;;;;6.25;2.58;;;11.50;99.90;;;;;;6133582;23;20009;-83
2023/08/31 03:44:59;;;;;;;5.15;2.15;;;11.60;99.90;;;;;;6158435;23;20013;-83
2023/08/31 03:47:25;;;;;;;9.95;6.40;;;11.60;99.90;;;;;;6158419;23;20355;-83
2023/08/31 03:49:50;;;;;;;6.78;2.53;;;11.60;99.90;;;;;;6158161;23;20016;-83
2023/08/31 03:52:16;;;;;;;5.85;2.00;;;11.60;99.90;;;;;;6158458;23;20013;-83
2023/08/31 03:54:41;;;;;;;7.57;2.63;;;11.60;99.90;;;;;;6158482;23;20021;-83
2023/08/31 03:57:07;;;;;;;5.32;2.10;;;11.60;99.90;;;;;;6133225;23;20013;-83
2023/08/31 03:59:32;;;;;;;7.70;2.97;;;11.60;99.90;;;;;;6157839;23;20398;-83
2023/08/31 04:01:58;;;;;;;6.07;2.72;;;11.50;99.90;;;;;;6134019;23;20109;-83
2023/08/31 04:04:24;;;;;;;7.43;2.75;;;11.50;99.90;;;;;;6158646;23;20009;-84
2023/08/31 04:06:50;;;;;;;5.88;2.47;;;11.50;99.90;;;;;;6158353;23;20017;-83
2023/08/31 04:09:15;;;;;;;5.95;2.40;;;11.50;99.90;;;;;;6158319;23;20336;-83
2023/08/31 04:11:41;;;;;;;8.23;5.82;;;11.50;99.90;;;;;;6133132;23;20075;-83
2023/08/31 04:14:07;;;;;;;6.63;2.53;;;11.50;99.90;;;;;;6157836;23;20354;-83
2023/08/31 04:16:32;;;;;;;5.78;2.35;;;11.50;99.90;;;;;;6157354;23;20013;-84
2023/08/31 04:18:58;;;;;;;7.65;2.70;;;11.50;99.90;;;;;;6156876;23;20040;-83
2023/08/31 04:21:24;;;;;;;11.93;6.03;;;11.40;99.90;;;;;;6157520;23;20514;-83
2023/08/31 04:23:49;;;;;;;5.35;2.28;;;11.50;99.90;;;;;;6133071;23;20017;-83
2023/08/31 04:26:17;;;;;;;7.60;2.85;;;11.50;99.90;;;;;;6132684;23;20354;-83
2023/08/31 04:28:43;;;;;;;5.20;2.47;;;11.50;99.90;;;;;;6133050;23;20017;-83
2023/08/31 04:31:09;;;;;;;6.63;2.35;;;11.50;99.90;;;;;;6132459;23;20012;-83
2023/08/31 04:33:36;;;;;;;6.60;2.25;;;11.40;99.90;;;;;;6156023;23;20100;-83
2023/08/31 04:36:03;;;;;;;5.57;2.63;;;11.40;99.90;;;;;;6155959;23;20076;-83
2023/08/31 04:38:29;;;;;;;8.00;2.15;;;11.40;99.90;;;;;;6132132;23;20011;-83
2023/08/31 04:40:57;;;;;;;10.27;5.63;;;11.40;99.90;;;;;;6158135;23;20437;-83
2023/08/31 04:43:23;;;;;;;8.98;4.95;;;11.40;99.90;;;;;;6133463;23;20055;-83
2023/08/31 04:45:48;;;;;;;7.65;2.47;;;11.50;99.90;;;;;;6157642;23;20009;-83
2023/08/31 04:48:15;;;;;;;6.85;2.33;;;11.50;99.90;;;;;;6157078;23;20091;-83
2023/08/31 04:50:41;;;;;;;7.57;2.30;;;11.50;99.90;;;;;;6131015;23;20009;-83
2023/08/31 04:53:06;;;;;;;5.38;2.05;;;11.50;99.90;;;;;;6157234;23;20019;-83
2023/08/31 04:55:32;;;;;;;4.05;1.67;;;11.50;99.90;;;;;;6156247;23;20076;-83
2023/08/31 04:57:57;;;;;;;3.85;1.77;;;11.50;99.90;;;;;;6155932;23;20009;-83
2023/08/31 05:00:23;;;;;;;4.22;1.50;;;11.50;99.90;;;;;;6157370;23;20020;-83
2023/08/31 05:02:49;;;;;;;4.32;1.65;;;11.50;99.90;;;;;;6157062;23;20013;-83
2023/08/31 05:05:14;;;;;;;3.75;1.65;;;11.50;99.90;;;;;;6157088;23;20009;-82
2023/08/31 05:07:40;;;;;;;6.50;2.38;;;11.50;99.90;;;;;;6132129;23;20354;-83
2023/08/31 05:10:07;;;;;;;5.88;2.35;;;11.50;99.90;;;;;;6131714;23;20020;-83
2023/08/31 05:12:32;;;;;;;6.28;2.67;;;11.60;99.90;;;;;;6132445;23;20347;-82
2023/08/31 05:14:58;;;;;;;9.98;4.57;;;11.70;99.90;;;;;;6156977;23;20459;-85
2023/08/31 05:17:23;;;;;;;7.68;2.28;;;11.70;99.90;;;;;;6132679;23;20096;-85
2023/08/31 05:19:50;;;;;;;8.73;2.45;;;11.80;99.90;;;;;;6132220;23;20440;-84
2023/08/31 05:22:15;;;;;;;7.13;2.25;;;11.80;99.90;;;;;;6156596;23;20013;-84
2023/08/31 05:24:41;;;;;;;5.22;1.85;;;11.70;99.90;;;;;;6156553;23;20013;-85
2023/08/31 05:27:07;;;;;;;5.35;2.22;;;11.70;99.90;;;;;;6156586;23;20422;-85
2023/08/31 05:29:32;;;;;;;6.68;2.45;;;11.70;99.90;;;;;;6131054;23;20501;-85
2023/08/31 05:31:58;;;;;;;6.07;2.53;;;11.80;99.90;;;;;;6132956;23;20012;-85
2023/08/31 05:34:25;;;;;;;6.93;2.45;;;11.80;99.90;;;;;;6156734;23;20099;-85
2023/08/31 05:36:51;;;;;;;6.00;2.25;;;11.80;99.90;;;;;;6156785;23;20357;-85
2023/08/31 05:39:16;;;;;;;6.45;2.15;;;11.80;99.90;;;;;;6131987;23;20427;-85
2023/08/31 05:41:43;;;;;;;4.90;2.17;;;11.80;99.90;;;;;;6131748;23;20350;-85
2023/08/31 05:44:09;;;;;;;7.85;2.42;;;11.80;99.90;;;;;;6132031;23;20044;-85
2023/08/31 05:46:35;;;;;;;8.00;2.47;;;11.90;99.90;;;;;;6156784;23;20013;-85
2023/08/31 05:49:01;;;;;;;6.88;2.42;;;11.90;99.90;;;;;;6132144;23;20024;-85
2023/08/31 05:51:26;;;;;;;5.45;2.13;;;11.90;99.90;;;;;;6158527;23;20012;-85
2023/08/31 05:53:52;;;;;;;8.50;2.78;;;11.90;99.90;;;;;;6159261;23;20096;-85
2023/08/31 05:56:19;;;;;;;7.85;2.40;;;11.90;99.90;;;;;;6158758;23;20529;-85
2023/08/31 05:58:45;;;;;;;6.38;2.50;;;12.00;99.90;;;;;;6158702;23;20019;-85
2023/08/31 06:01:11;;;;;;;7.07;2.22;;;12.00;99.90;;;;;;6133963;23;20042;-85
2023/08/31 06:03:36;;;;;;;4.75;2.00;;;12.00;99.90;;;;;;6159228;23;20020;-85
2023/08/31 06:06:03;;;;;;;10.20;5.28;;;12.10;99.90;;;;;;6158716;23;20379;-85
2023/08/31 06:08:30;;;;;;;6.40;2.75;;;12.10;99.90;;;;;;6158713;23;20020;-85
2023/08/31 06:10:55;;;;;;;5.45;2.20;;;12.20;99.90;;;;;;6158482;23;20411;-85
2023/08/31 06:13:21;;;;;;;10.77;5.43;;;12.20;99.90;;;;;;6158410;23;20017;-85
2023/08/31 06:15:47;;;;;;;8.45;2.40;;;12.30;99.90;;;;;;6158929;23;20017;-85
2023/08/31 06:18:12;;;;;;;4.60;1.85;;;12.40;99.90;;;;;;6158812;23;20455;-85
2023/08/31 06:20:38;;;;;;;6.65;2.67;;;12.40;99.90;;;;;;6134365;23;20009;-85
2023/08/31 06:23:04;;;;;;;7.40;2.58;;;12.40;99.90;;;;;;6158773;23;20088;-85
2023/08/31 06:25:30;;;;;;;8.55;2.03;;;12.40;99.90;;;;;;6158887;23;20020;-85
2023/08/31 06:27:55;;;;;;;4.93;2.10;;;12.40;99.90;;;;;;6158189;23;20516;-85
2023/08/31 06:30:21;;;;;;;6.30;2.33;;;12.50;99.90;;;;;;6158411;23;20009;-85
2023/08/31 06:32:47;;;;;;;5.20;2.00;;;12.50;99.90;;;;;;6158651;23;20110;-85
2023/08/31 06:35:17;;;;;;;10.93;5.60;;;12.60;99.90;;;;;;6133921;23;20024;-85
2023/08/31 06:37:43;;;;;;;5.45;2.63;;;12.70;99.90;;;;;;6158494;23;20016;-85
2023/08/31 06:40:10;;;;;;;8.25;2.67;;;12.70;99.90;;;;;;6133563;23;20016;-85
2023/08/31 06:42:36;;;;;;;7.68;2.20;;;12.80;99.90;;;;;;6158407;23;20454;-85
2023/08/31 06:45:06;;;;;;;9.48;2.92;;;12.80;99.90;;;;;;6133693;23;20013;-85
2023/08/31 06:47:33;;;;;;;6.53;2.58;;;12.90;99.90;;;;;;6158729;23;20424;-86
2023/08/31 06:49:59;;;;;;;5.90;2.58;;;13.00;99.90;;;;;;6133731;23;20009;-86
2023/08/31 06:52:28;;;;;;;5.85;2.08;;;13.10;99.90;;;;;;6158481;23;20016;-85
2023/08/31 06:54:56;;;;;;;11.90;5.90;;;13.20;99.90;;;;;;6133874;23;20013;-86
2023/08/31 06:57:26;;;;;;;8.27;2.65;;;13.30;99.90;;;;;;6157951;23;20009;-86
2023/08/31 06:59:52;;;;;;;5.00;2.20;;;13.50;99.90;;;;;;6158064;23;20451;-86
2023/08/31 07:02:22;;;;;;;5.75;2.15;;;13.50;99.90;;;;;;6157101;23;20458;-86
2023/08/31 07:04:48;;;;;;;9.18;2.78;;;13.60;99.90;;;;;;6158475;23;20017;-86
2023/08/31 07:07:14;;;;;;;7.03;2.28;;;13.70;99.90;;;;;;6133837;23;20017;-86
2023/08/31 07:09:43;;;;;;;4.38;1.73;;;13.80;99.90;;;;;;6133940;23;20043;-86
2023/08/31 07:12:09;;;;;;;7.07;2.13;;;13.80;99.90;;;;;;6158799;23;20509;-86
2023/08/31 07:14:35;;;;;;;6.75;2.55;;;13.90;99.90;;;;;;6158745;23;20052;-86
2023/08/31 07:17:01;;;;;;;6.88;2.55;;;14.00;99.90;;;;;;6158431;23;20005;-86
2023/08/31 07:19:27;;;;;;;10.63;4.60;;;14.00;99.90;;;;;;6133075;23;20462;-86
2023/08/31 07:21:54;;;;;;;5.35;1.88;;;14.00;99.90;;;;;;6157771;23;20005;-85
2023/08/31 07:24:21;;;;;;;9.45;4.30;;;14.10;99.90;;;;;;6158240;23;20071;-86
2023/08/31 07:26:47;;;;;;;10.10;4.50;;;14.10;99.90;;;;;;6158562;23;20016;-86
2023/08/31 07:29:13;;;;;;;6.00;2.10;;;14.10;99.90;;;;;;6157996;23;20013;-86
2023/08/31 07:31:38;;;;;;;9.40;4.25;;;14.10;99.90;;;;;;6134016;23;20012;-86
2023/08/31 07:34:04;;;;;;;10.82;4.50;;;14.10;99.90;;;;;;6133640;23;20017;-86
2023/08/31 07:36:30;;;;;;;3.92;1.35;;;14.10;99.90;;;;;;6158222;23;20328;-86
2023/08/31 07:38:55;;;;;;;4.97;1.80;;;14.10;99.90;;;;;;6133266;23;20021;-86
2023/08/31 07:41:21;;;;;;;5.20;2.00;;;14.00;99.90;;;;;;6158412;23;20524;-86
2023/08/31 07:43:47;;;;;;;4.40;1.40;;;14.00;99.90;;;;;;6158899;23;20017;-86
2023/08/31 07:46:12;;;;;;;4.60;1.90;;;14.00;99.90;;;;;;6158741;23;20013;-86
2023/08/31 07:48:38;;;;;;;5.82;2.08;;;14.10;99.90;;;;;;6157980;23;20406;-86
2023/08/31 07:51:04;;;;;;;4.07;1.90;;;14.30;99.90;;;;;;6157434;23;20049;-87
2023/08/31 07:53:30;;;;;;;7.43;3.17;;;14.40;99.90;;;;;;6158011;23;20020;-87
2023/08/31 07:55:59;;;;;;;9.35;3.28;;;14.60;99.90;;;;;;6133323;23;20009;-86
2023/08/31 07:58:26;;;;;;;6.35;2.10;;;14.80;99.90;;;;;;6133251;23;20013;-86
2023/08/31 08:00:55;;;;;;;4.63;1.50;;;14.90;99.90;;;;;;6133890;23;20020;-87
2023/08/31 08:03:22;;;;;;;5.22;2.05;;;14.90;99.90;;;;;;6158211;23;20009;-86
2023/08/31 08:05:47;;;;;;;7.60;1.92;;;15.00;99.90;;;;;;6157512;23;20029;-87
2023/08/31 08:08:13;;;;;;;6.28;1.42;;;15.20;99.90;;;;;;6133452;23;20059;-87
2023/08/31 08:10:39;;;;;;;5.38;2.08;;;15.20;99.90;;;;;;6157134;23;20032;-87
2023/08/31 08:13:04;;;;;;;6.95;2.38;;;15.30;99.90;;;;;;6156713;23;20469;-87
2023/08/31 08:15:31;;;;;;;8.55;2.47;;;15.40;99.90;;;;;;6133425;23;20013;-88
2023/08/31 08:17:59;;;;;;;4.80;1.30;;;15.50;99.90;;;;;;6133294;23;20009;-87
2023/08/31 08:20:25;;;;;;;6.82;1.70;;;15.50;99.90;;;;;;6158128;23;20391;-87
2023/08/31 08:22:52;;;;;;;6.80;2.10;;;15.40;99.90;;;;;;6157279;23;20446;-87
2023/08/31 08:25:21;;;;;;;5.90;1.45;;;15.50;99.90;;;;;;6157852;23;20075;-87
2023/08/31 08:27:47;;;;;;;5.18;1.40;;;15.60;99.90;;;;;;6132518;23;20012;-87
2023/08/31 08:30:15;;;;;;;7.53;2.25;;;15.60;99.90;;;;;;6133268;23;20012;-87
2023/08/31 08:32:41;;;;;;;6.38;1.75;;;15.80;99.90;;;;;;6157651;23;20092;-87
2023/08/31 08:35:07;;;;;;;1.73;0.90;;;16.00;99.90;;;;;;6157797;23;20041;-87
2023/08/31 08:37:33;;;;;;;6.20;1.77;;;16.00;99.90;;;;;;6132861;23;20481;-87
2023/08/31 08:39:59;;;;;;;9.73;1.90;;;16.00;99.90;;;;;;6133070;23;20009;-87
2023/08/31 08:42:25;;;;;;;1.65;0.70;;;16.20;99.90;;;;;;6157960;23;20520;-87
2023/08/31 08:44:51;;;;;;;7.47;1.88;;;16.30;99.90;;;;;;6157974;23;20019;-87
2023/08/31 08:47:20;;;;;;;6.72;1.67;;;16.40;99.90;;;;;;6157316;23;20012;-87
2023/08/31 08:49:47;;;;;;;8.77;1.67;;;16.50;99.90;;;;;;6133264;23;20012;-87
2023/08/31 08:52:14;;;;;;;5.65;1.40;;;16.50;99.90;;;;;;6157837;23;20056;-87
2023/08/31 08:54:40;;;;;;;5.18;1.30;;;16.60;99.90;;;;;;6157360;23;20020;-87
2023/08/31 08:57:06;;;;;;;2.63;0.55;;;16.70;99.90;;;;;;6157677;23;20005;-87
2023/08/31 08:59:32;;;;;;;3.45;0.90;;;16.80;99.90;;;;;;6157519;23;20008;-87
2023/08/31 09:01:57;;;;;;;5.00;0.90;;;16.80;99.90;;;;;;6157731;23;20489;-87
2023/08/31 09:04:23;;;;;;;2.78;0.63;;;16.90;99.90;;;;;;6133480;23;20529;-87
2023/08/31 09:06:51;;;;;;;4.38;1.00;;;16.90;99.90;;;;;;6133405;23;20398;-87
2023/08/31 09:09:17;;;;;;;2.58;0.80;;;17.00;99.90;;;;;;6156824;23;20009;-87
2023/08/31 09:11:43;;;;;;;3.40;0.90;;;16.90;99.90;;;;;;6132729;23;20047;-87
2023/08/31 09:14:19;;;;;;;1.95;0.40;;;16.90;99.90;;;;;;6157804;23;20013;-87
2023/08/31 09:16:46;;;;;;;2.70;0.60;;;16.80;99.90;;;;;;6156660;23;20013;-87
2023/08/31 09:19:20;;;;;;;4.55;0.93;;;16.70;99.90;;;;;;6132855;23;20041;-88
2023/08/31 09:21:51;;;;;;;4.20;0.98;;;16.70;99.90;;;;;;6157787;23;20009;-87
2023/08/31 09:24:20;;;;;;;5.07;0.80;;;16.60;99.90;;;;;;6133239;23;20017;-87
2023/08/31 09:26:48;;;;;;;1.63;0.60;;;16.60;99.90;;;;;;6157439;23;20067;-87
2023/08/31 09:29:13;;;;;;;2.90;1.02;;;16.60;99.90;;;;;;6157485;23;20103;-87
2023/08/31 09:31:46;;;;;;;6.07;0.90;;;16.70;99.90;;;;;;6132988;23;20049;-87
2023/08/31 09:34:13;;;;;;;3.65;1.00;;;16.80;99.90;;;;;;6157420;23;20501;-87
2023/08/31 09:36:39;;;;;;;5.00;0.90;;;16.80;99.90;;;;;;6157676;23;20009;-87
2023/08/31 09:39:09;;;;;;;2.80;0.65;;;16.70;99.90;;;;;;6132991;23;20025;-87
2023/08/31 09:41:35;;;;;;;3.92;0.70;;;16.60;99.90;;;;;;6157427;23;20140;-87
2023/08/31 09:44:18;;;;;;;5.65;1.00;;;16.60;99.90;;;;;;6157769;23;20017;-87
2023/08/31 09:46:44;;;;;;;5.25;1.20;;;16.70;99.90;;;;;;6157558;23;20111;-87
2023/08/31 09:49:13;;;;;;;1.63;0.60;;;16.90;99.90;;;;;;6132875;23;20054;-87
2023/08/31 09:51:43;;;;;;;4.82;1.13;;;17.00;99.90;;;;;;6133122;23;20020;-87
2023/08/31 09:54:12;;;;;;;5.43;1.05;;;17.20;99.90;;;;;;6132628;23;20013;-87
2023/08/31 09:56:40;;;;;;;6.25;1.10;;;17.30;99.90;;;;;;6132876;23;20017;-87
2023/08/31 09:59:06;;;;;;;2.72;0.77;;;17.40;99.90;;;;;;6157055;23;20051;-87
2023/08/31 10:01:32;;;;;;;5.88;1.10;;;17.40;99.90;;;;;;6133036;23;20445;-87
2023/08/31 10:03:59;;;;;;;4.82;1.10;;;17.50;99.90;;;;;;6132802;23;20521;-87
2023/08/31 10:06:25;;;;;;;7.35;1.60;;;17.50;99.90;;;;;;6132782;23;20040;-86
2023/08/31 10:08:51;;;;;;;4.20;0.98;;;17.60;99.90;;;;;;6132606;23;20013;-87
2023/08/31 10:11:18;;;;;;;3.60;1.10;;;17.60;99.90;;;;;;6132550;23;20024;-87
2023/08/31 10:13:47;;;;;;;6.47;1.63;;;17.70;99.90;;;;;;6132069;23;20518;-86
2023/08/31 10:16:13;;;;;;;4.95;1.00;;;17.70;99.90;;;;;;6156845;23;20009;-86
2023/08/31 10:18:39;;;;;;;5.93;1.10;;;17.60;99.90;;;;;;6156293;23;20036;-86
2023/08/31 10:21:05;;;;;;;5.07;1.38;;;17.40;99.90;;;;;;6156456;23;20467;-86
2023/08/31 10:23:32;;;;;;;6.32;1.30;;;17.40;99.90;;;;;;6157292;23;20079;-87
2023/08/31 10:25:57;;;;;;;4.78;1.05;;;17.50;99.90;;;;;;6156924;23;20009;-87
2023/08/31 10:28:24;;;;;;;3.20;0.93;;;17.60;99.90;;;;;;6131781;23;20021;-88
2023/08/31 10:31:04;;;;;;;5.03;1.27;;;17.70;99.90;;;;;;6131528;23;20346;-88
2023/08/31 10:33:43;;;;;;;3.30;0.65;;;17.90;99.90;;;;;;6156233;23;20013;-88
2023/08/31 10:36:17;;;;;;;6.47;1.27;;;18.00;99.90;;;;;;6132837;23;20013;-88
2023/08/31 10:38:46;;;;;;;4.90;1.10;;;18.20;99.90;;;;;;6159435;23;20009;-88
2023/08/31 10:41:11;;;;;;;3.38;1.05;;;18.10;99.90;;;;;;6158445;23;20328;-88
2023/08/31 10:43:48;;;;;;;5.22;1.20;;;18.00;99.90;;;;;;6158167;23;20477;-88
2023/08/31 10:46:25;;;;;;;4.90;1.38;;;17.80;99.90;;;;;;6158474;23;20015;-88
2023/08/31 10:48:51;;;;;;;4.80;0.95;;;17.60;99.90;;;;;;6158394;23;20441;-88
2023/08/31 10:51:20;;;;;;;4.68;1.10;;;17.30;99.90;;;;;;6158714;23;20447;-88
2023/08/31 10:53:46;;;;;;;6.05;0.93;;;16.70;99.90;;;;;;6158795;23;20477;-88
2023/08/31 10:56:12;;;;;;;4.40;0.60;;;16.20;99.90;;;;;;6133777;23;20055;-86
2023/08/31 10:58:38;;;;;;;3.22;0.77;;;15.80;99.90;;;;;;6138592;23;20017;-88
2023/08/31 11:01:03;;;;;;;4.28;1.08;;;15.60;99.90;;;;;;6135090;23;20013;-87
2023/08/31 11:03:32;;;;;;;7.43;1.80;;;15.50;99.90;;;;;;6133854;23;20016;-88
2023/08/31 11:05:58;;;;;;;1.30;0.52;;;15.60;99.90;;;;;;6134588;23;20454;-88
2023/08/31 11:08:24;;;;;;;6.18;1.70;;;15.90;99.90;;;;;;6158631;23;20019;-88
2023/08/31 11:10:50;;;;;;;7.55;1.45;;;16.20;99.90;;;;;;6133924;23;20013;-88
2023/08/31 11:13:19;;;;;;;3.85;0.75;;;16.50;99.90;;;;;;6134482;23;20530;-88
2023/08/31 11:15:46;;;;;;;6.15;1.30;;;16.70;99.90;;;;;;6133673;23;20013;-88
2023/08/31 11:18:12;;;;;;;7.95;1.60;;;16.90;99.90;;;;;;6158215;23;20502;-89
2023/08/31 11:20:37;;;;;;;6.28;1.38;;;17.20;99.90;;;;;;6158258;23;20012;-88
2023/08/31 11:23:03;;;;;;;6.88;1.33;;;17.30;99.90;;;;;;6134312;23;20391;-89
2023/08/31 11:25:32;;;;;;;3.08;0.60;;;17.40;99.90;;;;;;6158796;23;20084;-89
2023/08/31 11:28:06;;;;;;;6.40;1.38;;;17.40;99.90;;;;;;6133802;23;20017;-88
2023/08/31 11:30:33;;;;;;;5.97;1.40;;;17.40;99.90;;;;;;6134071;23;20009;-88
2023/08/31 11:33:11;;;;;;;5.20;1.20;;;17.40;99.90;;;;;;6158650;23;20394;-89
2023/08/31 11:35:43;;;;;;;3.97;0.95;;;17.40;99.90;;;;;;6157968;23;20013;-88
2023/08/31 11:38:09;;;;;;;6.60;1.60;;;17.30;99.90;;;;;;6133585;23;20020;-88
2023/08/31 11:40:36;;;;;;;5.68;1.20;;;17.40;99.90;;;;;;6158175;23;20013;-88
2023/08/31 11:43:04;;;;;;;4.75;0.70;;;17.60;99.90;;;;;;6133755;23;20451;-88
2023/08/31 11:45:31;;;;;;;6.95;1.58;;;17.60;99.90;;;;;;6157735;23;20009;-89
2023/08/31 11:47:58;;;;;;;4.80;1.50;;;17.50;99.90;;;;;;6158058;23;20052;-89
2023/08/31 11:50:25;;;;;;;7.95;1.80;;;17.40;99.90;;;;;;6157913;23;20017;-89
2023/08/31 11:52:53;;;;;;;5.93;1.48;;;17.30;99.90;;;;;;6133122;23;20474;-89
2023/08/31 11:55:18;;;;;;;6.93;1.30;;;17.20;99.90;;;;;;6157600;23;20016;-88
2023/08/31 11:57:51;;;;;;;1.73;0.70;;;17.10;99.90;;;;;;6133418;23;20320;-88
2023/08/31 12:00:19;;;;;;;6.03;1.40;;;16.90;99.90;;;;;;6133592;23;20005;-88
2023/08/31 12:02:48;;;;;;;4.80;1.38;;;16.90;99.90;;;;;;6158263;23;20040;-88
2023/08/31 12:05:14;;;;;;;2.80;0.65;;;16.90;99.90;;;;;;6132986;23;20488;-88
2023/08/31 12:07:41;;;;;;;4.13;0.90;;;17.10;99.90;;;;;;6132617;23;20100;-88
2023/08/31 12:10:07;;;;;;;4.63;1.20;;;17.20;99.90;;;;;;6157085;23;20017;-88
2023/08/31 12:12:34;;;;;;;3.17;0.73;;;17.40;99.90;;;;;;6157269;23;20020;-88
2023/08/31 12:15:03;;;;;;;5.90;1.50;;;17.40;99.90;;;;;;6133003;23;20016;-88
2023/08/31 12:17:32;;;;;;;2.17;0.60;;;17.50;99.90;;;;;;6132731;23;20473;-88
2023/08/31 12:20:05;;;;;;;4.40;1.10;;;17.70;99.90;;;;;;6156710;23;20008;-88
2023/08/31 12:22:30;;;;;;;4.53;1.00;;;17.80;99.90;;;;;;6132583;23;20087;-89
2023/08/31 12:24:56;;;;;;;2.45;0.70;;;17.90;99.90;;;;;;6133062;23;20016;-89
2023/08/31 12:27:22;;;;;;;3.83;0.90;;;18.00;99.90;;;;;;6132993;23;20320;-89
2023/08/31 12:29:48;;;;;;;3.20;0.90;;;18.20;99.90;;;;;;6157618;23;20099;-88
2023/08/31 12:32:13;;;;;;;3.60;0.60;;;18.30;99.90;;;;;;6132297;23;20031;-88
2023/08/31 12:34:42;;;;;;;4.78;1.00;;;18.40;99.90;;;;;;6157567;23;20775;-89
2023/08/31 12:37:07;;;;;;;3.53;0.60;;;18.20;99.90;;;;;;6132295;23;20351;-88
2023/08/31 12:39:33;;;;;;;3.90;0.90;;;18.30;99.90;;;;;;6157081;23;20023;-88
2023/08/31 12:41:59;;;;;;;4.50;0.95;;;18.30;99.90;;;;;;6157317;23;20009;-88
2023/08/31 12:44:25;;;;;;;3.42;0.90;;;18.40;99.90;;;;;;6157798;23;20021;-88
2023/08/31 12:46:52;;;;;;;4.05;1.00;;;18.60;99.90;;;;;;6133160;23;20017;-88